sensor_id;sensor_type;location;lat;lon;timestamp;P1;durP1;ratioP1;P2;durP2;ratioP2
50319;SDS011;36226;53.464;9.852;2023-04-06T00:00:12;7.22;;;2.78;;
50319;SDS011;36226;53.464;9.852;2023-04-06T00:02:39;7.13;;;2.42;;
50319;SDS011;36226;53.464;9.852;2023-04-06T00:05:04;3.30;;;2.30;;
50319;SDS011;36226;53.464;9.852;2023-04-06T00:07:30;6.82;;;2.47;;
50319;SDS011;36226;53.464;9.852;2023-04-06T00:09:58;6.13;;;2.70;;
50319;SDS011;36226;53.464;9.852;2023-04-06T00:12:23;5.03;;;2.40;;
50319;SDS011;36226;53.464;9.852;2023-04-06T00:14:49;6.00;;;3.10;;
50319;SDS011;36226;53.464;9.852;2023-04-06T01:49:57;6.88;;;3.35;;
50319;SDS011;36226;53.464;9.852;2023-04-06T01:52:22;6.95;;;3.28;;
50319;SDS011;36226;53.464;9.852;2023-04-06T01:54:48;5.45;;;3.40;;
50319;SDS011;36226;53.464;9.852;2023-04-06T02:50:13;5.03;;;2.70;;
50319;SDS011;36226;53.464;9.852;2023-04-06T02:52:39;9.35;;;2.83;;
50319;SDS011;36226;53.464;9.852;2023-04-06T02:55:04;5.80;;;3.63;;
50319;SDS011;36226;53.464;9.852;2023-04-06T02:57:34;4.80;;;3.17;;
50319;SDS011;36226;53.464;9.852;2023-04-06T02:59:59;6.30;;;4.00;;
50319;SDS011;36226;53.464;9.852;2023-04-06T03:02:25;5.65;;;3.90;;
50319;SDS011;36226;53.464;9.852;2023-04-06T03:04:50;6.95;;;3.65;;
50319;SDS011;36226;53.464;9.852;2023-04-06T04:03:40;11.73;;;7.43;;
50319;SDS011;36226;53.464;9.852;2023-04-06T04:06:49;12.65;;;7.68;;
50319;SDS011;36226;53.464;9.852;2023-04-06T04:10:00;13.43;;;7.68;;
50319;SDS011;36226;53.464;9.852;2023-04-06T04:21:48;13.10;;;7.80;;
50319;SDS011;36226;53.464;9.852;2023-04-06T04:24:14;12.80;;;7.95;;
50319;SDS011;36226;53.464;9.852;2023-04-06T04:26:39;10.73;;;7.80;;
50319;SDS011;36226;53.464;9.852;2023-04-06T04:29:05;11.18;;;7.25;;
50319;SDS011;36226;53.464;9.852;2023-04-06T04:31:31;12.55;;;7.78;;
50319;SDS011;36226;53.464;9.852;2023-04-06T04:33:57;12.77;;;7.57;;
50319;SDS011;36226;53.464;9.852;2023-04-06T04:36:23;13.77;;;7.90;;
50319;SDS011;36226;53.464;9.852;2023-04-06T04:38:50;12.23;;;7.45;;
50319;SDS011;36226;53.464;9.852;2023-04-06T04:41:15;11.93;;;7.47;;
50319;SDS011;36226;53.464;9.852;2023-04-06T04:43:41;12.90;;;8.13;;
50319;SDS011;36226;53.464;9.852;2023-04-06T04:46:06;13.10;;;7.63;;
50319;SDS011;36226;53.464;9.852;2023-04-06T04:48:32;12.48;;;7.68;;
50319;SDS011;36226;53.464;9.852;2023-04-06T04:50:57;12.35;;;7.25;;
50319;SDS011;36226;53.464;9.852;2023-04-06T04:53:22;12.27;;;7.55;;
50319;SDS011;36226;53.464;9.852;2023-04-06T05:01:32;12.38;;;7.68;;
50319;SDS011;36226;53.464;9.852;2023-04-06T05:03:57;13.68;;;7.13;;
50319;SDS011;36226;53.464;9.852;2023-04-06T05:06:22;10.32;;;7.00;;
50319;SDS011;36226;53.464;9.852;2023-04-06T05:08:48;11.45;;;7.53;;
50319;SDS011;36226;53.464;9.852;2023-04-06T05:11:13;9.82;;;6.68;;
50319;SDS011;36226;53.464;9.852;2023-04-06T05:13:38;10.55;;;6.55;;
50319;SDS011;36226;53.464;9.852;2023-04-06T05:16:04;9.27;;;5.97;;
50319;SDS011;36226;53.464;9.852;2023-04-06T05:18:30;11.80;;;5.72;;
50319;SDS011;36226;53.464;9.852;2023-04-06T05:20:55;10.40;;;5.55;;
50319;SDS011;36226;53.464;9.852;2023-04-06T05:23:20;9.23;;;5.15;;
50319;SDS011;36226;53.464;9.852;2023-04-06T05:25:46;10.05;;;5.68;;
50319;SDS011;36226;53.464;9.852;2023-04-06T05:28:11;10.45;;;6.15;;
50319;SDS011;36226;53.464;9.852;2023-04-06T05:30:39;9.88;;;5.47;;
50319;SDS011;36226;53.464;9.852;2023-04-06T05:33:04;7.55;;;4.68;;
50319;SDS011;36226;53.464;9.852;2023-04-06T05:35:30;6.97;;;4.90;;
50319;SDS011;36226;53.464;9.852;2023-04-06T05:37:55;7.72;;;5.28;;
50319;SDS011;36226;53.464;9.852;2023-04-06T05:40:20;10.85;;;5.75;;
50319;SDS011;36226;53.464;9.852;2023-04-06T05:42:46;9.55;;;5.80;;
50319;SDS011;36226;53.464;9.852;2023-04-06T05:45:11;12.25;;;7.45;;
50319;SDS011;36226;53.464;9.852;2023-04-06T05:47:41;16.42;;;6.07;;
50319;SDS011;36226;53.464;9.852;2023-04-06T05:50:10;10.15;;;5.88;;
50319;SDS011;36226;53.464;9.852;2023-04-06T05:52:36;8.50;;;5.45;;
50319;SDS011;36226;53.464;9.852;2023-04-06T05:55:02;8.93;;;5.38;;
50319;SDS011;36226;53.464;9.852;2023-04-06T05:57:28;11.20;;;6.90;;
50319;SDS011;36226;53.464;9.852;2023-04-06T05:59:53;12.02;;;7.32;;
50319;SDS011;36226;53.464;9.852;2023-04-06T06:02:18;11.93;;;7.20;;
50319;SDS011;36226;53.464;9.852;2023-04-06T06:04:44;11.85;;;7.15;;
50319;SDS011;36226;53.464;9.852;2023-04-06T06:07:09;13.73;;;6.70;;
50319;SDS011;36226;53.464;9.852;2023-04-06T06:09:38;12.27;;;6.70;;
50319;SDS011;36226;53.464;9.852;2023-04-06T06:12:03;10.90;;;6.45;;
50319;SDS011;36226;53.464;9.852;2023-04-06T06:14:28;15.35;;;7.28;;
50319;SDS011;36226;53.464;9.852;2023-04-06T06:16:54;10.73;;;6.95;;
50319;SDS011;36226;53.464;9.852;2023-04-06T06:19:20;11.00;;;6.43;;
50319;SDS011;36226;53.464;9.852;2023-04-06T06:21:45;9.73;;;5.88;;
50319;SDS011;36226;53.464;9.852;2023-04-06T06:24:10;11.40;;;5.65;;
50319;SDS011;36226;53.464;9.852;2023-04-06T06:26:36;11.13;;;5.60;;
50319;SDS011;36226;53.464;9.852;2023-04-06T06:29:02;10.23;;;4.82;;
50319;SDS011;36226;53.464;9.852;2023-04-06T06:31:30;11.90;;;5.10;;
50319;SDS011;36226;53.464;9.852;2023-04-06T06:33:55;8.95;;;4.85;;
50319;SDS011;36226;53.464;9.852;2023-04-06T06:36:20;8.23;;;4.63;;
50319;SDS011;36226;53.464;9.852;2023-04-06T06:38:46;8.20;;;4.38;;
50319;SDS011;36226;53.464;9.852;2023-04-06T06:41:11;9.20;;;4.82;;
50319;SDS011;36226;53.464;9.852;2023-04-06T06:43:37;10.07;;;4.88;;
50319;SDS011;36226;53.464;9.852;2023-04-06T06:46:02;11.75;;;4.95;;
50319;SDS011;36226;53.464;9.852;2023-04-06T06:48:28;7.00;;;4.50;;
50319;SDS011;36226;53.464;9.852;2023-04-06T06:50:53;10.73;;;5.20;;
50319;SDS011;36226;53.464;9.852;2023-04-06T06:53:19;6.97;;;4.60;;
50319;SDS011;36226;53.464;9.852;2023-04-06T06:55:45;10.25;;;4.85;;
50319;SDS011;36226;53.464;9.852;2023-04-06T06:58:10;7.28;;;4.22;;
50319;SDS011;36226;53.464;9.852;2023-04-06T07:00:36;8.68;;;4.82;;
50319;SDS011;36226;53.464;9.852;2023-04-06T07:03:01;7.65;;;4.15;;
50319;SDS011;36226;53.464;9.852;2023-04-06T07:05:27;7.63;;;4.07;;
50319;SDS011;36226;53.464;9.852;2023-04-06T07:07:53;6.07;;;3.67;;
50319;SDS011;36226;53.464;9.852;2023-04-06T07:10:18;7.03;;;4.18;;
50319;SDS011;36226;53.464;9.852;2023-04-06T07:12:44;8.43;;;3.42;;
50319;SDS011;36226;53.464;9.852;2023-04-06T07:15:10;6.43;;;3.92;;
50319;SDS011;36226;53.464;9.852;2023-04-06T07:17:35;8.70;;;4.25;;
50319;SDS011;36226;53.464;9.852;2023-04-06T07:20:01;6.88;;;4.32;;
50319;SDS011;36226;53.464;9.852;2023-04-06T07:22:26;6.78;;;4.03;;
50319;SDS011;36226;53.464;9.852;2023-04-06T07:24:51;9.38;;;4.13;;
50319;SDS011;36226;53.464;9.852;2023-04-06T07:27:17;7.60;;;3.70;;
50319;SDS011;36226;53.464;9.852;2023-04-06T07:29:43;5.75;;;4.15;;
50319;SDS011;36226;53.464;9.852;2023-04-06T07:32:09;6.63;;;3.85;;
50319;SDS011;36226;53.464;9.852;2023-04-06T07:34:35;8.30;;;4.50;;
50319;SDS011;36226;53.464;9.852;2023-04-06T07:37:00;8.75;;;3.95;;
50319;SDS011;36226;53.464;9.852;2023-04-06T07:39:25;6.95;;;3.88;;
50319;SDS011;36226;53.464;9.852;2023-04-06T07:41:52;9.18;;;4.25;;
50319;SDS011;36226;53.464;9.852;2023-04-06T07:44:17;7.35;;;4.03;;
50319;SDS011;36226;53.464;9.852;2023-04-06T07:46:43;8.48;;;3.72;;
50319;SDS011;36226;53.464;9.852;2023-04-06T07:49:08;7.30;;;3.85;;
50319;SDS011;36226;53.464;9.852;2023-04-06T07:51:35;7.78;;;3.92;;
50319;SDS011;36226;53.464;9.852;2023-04-06T07:54:03;8.52;;;4.07;;
50319;SDS011;36226;53.464;9.852;2023-04-06T07:56:28;4.95;;;3.40;;
50319;SDS011;36226;53.464;9.852;2023-04-06T07:58:53;7.43;;;4.30;;
50319;SDS011;36226;53.464;9.852;2023-04-06T08:01:21;6.50;;;4.38;;
50319;SDS011;36226;53.464;9.852;2023-04-06T08:03:47;8.15;;;4.15;;
50319;SDS011;36226;53.464;9.852;2023-04-06T08:06:12;7.38;;;4.13;;
50319;SDS011;36226;53.464;9.852;2023-04-06T08:08:37;10.07;;;4.78;;
50319;SDS011;36226;53.464;9.852;2023-04-06T08:11:03;7.72;;;3.72;;
50319;SDS011;36226;53.464;9.852;2023-04-06T08:13:28;8.68;;;4.55;;
50319;SDS011;36226;53.464;9.852;2023-04-06T08:15:53;8.23;;;4.25;;
50319;SDS011;36226;53.464;9.852;2023-04-06T08:18:19;9.18;;;4.63;;
50319;SDS011;36226;53.464;9.852;2023-04-06T08:20:45;9.05;;;4.50;;
50319;SDS011;36226;53.464;9.852;2023-04-06T08:23:10;6.82;;;4.32;;
50319;SDS011;36226;53.464;9.852;2023-04-06T08:25:36;7.78;;;4.28;;
50319;SDS011;36226;53.464;9.852;2023-04-06T08:28:02;13.43;;;4.63;;
50319;SDS011;36226;53.464;9.852;2023-04-06T08:30:28;7.82;;;3.80;;
50319;SDS011;36226;53.464;9.852;2023-04-06T08:32:54;7.18;;;3.65;;
50319;SDS011;36226;53.464;9.852;2023-04-06T08:35:19;7.43;;;4.15;;
50319;SDS011;36226;53.464;9.852;2023-04-06T08:37:44;6.18;;;3.75;;
50319;SDS011;36226;53.464;9.852;2023-04-06T08:40:10;6.38;;;4.00;;
50319;SDS011;36226;53.464;9.852;2023-04-06T08:42:39;6.85;;;4.38;;
50319;SDS011;36226;53.464;9.852;2023-04-06T08:45:08;7.35;;;3.72;;
50319;SDS011;36226;53.464;9.852;2023-04-06T08:47:35;5.97;;;3.40;;
50319;SDS011;36226;53.464;9.852;2023-04-06T08:50:03;7.32;;;3.80;;
50319;SDS011;36226;53.464;9.852;2023-04-06T08:52:32;6.80;;;3.38;;
50319;SDS011;36226;53.464;9.852;2023-04-06T08:54:59;7.07;;;3.38;;
50319;SDS011;36226;53.464;9.852;2023-04-06T08:57:24;6.22;;;3.47;;
50319;SDS011;36226;53.464;9.852;2023-04-06T08:59:51;8.50;;;3.60;;
50319;SDS011;36226;53.464;9.852;2023-04-06T09:02:17;4.70;;;3.40;;
50319;SDS011;36226;53.464;9.852;2023-04-06T09:04:44;3.75;;;2.92;;
50319;SDS011;36226;53.464;9.852;2023-04-06T09:07:15;7.03;;;3.45;;
50319;SDS011;36226;53.464;9.852;2023-04-06T09:09:41;5.63;;;2.90;;
50319;SDS011;36226;53.464;9.852;2023-04-06T09:12:21;4.85;;;2.83;;
50319;SDS011;36226;53.464;9.852;2023-04-06T09:14:54;4.25;;;2.53;;
50319;SDS011;36226;53.464;9.852;2023-04-06T09:17:30;4.18;;;2.60;;
50319;SDS011;36226;53.464;9.852;2023-04-06T09:19:57;3.60;;;2.40;;
50319;SDS011;36226;53.464;9.852;2023-04-06T09:22:23;6.32;;;2.55;;
50319;SDS011;36226;53.464;9.852;2023-04-06T09:24:52;6.07;;;2.70;;
50319;SDS011;36226;53.464;9.852;2023-04-06T09:27:18;4.22;;;2.65;;
50319;SDS011;36226;53.464;9.852;2023-04-06T09:30:05;3.85;;;2.58;;
50319;SDS011;36226;53.464;9.852;2023-04-06T09:32:48;4.38;;;2.45;;
50319;SDS011;36226;53.464;9.852;2023-04-06T09:35:15;3.58;;;2.47;;
50319;SDS011;36226;53.464;9.852;2023-04-06T09:37:44;4.07;;;2.80;;
50319;SDS011;36226;53.464;9.852;2023-04-06T09:40:09;6.50;;;3.33;;
50319;SDS011;36226;53.464;9.852;2023-04-06T09:42:35;5.57;;;2.80;;
50319;SDS011;36226;53.464;9.852;2023-04-06T09:45:01;4.72;;;2.53;;
50319;SDS011;36226;53.464;9.852;2023-04-06T09:47:27;4.07;;;2.53;;
50319;SDS011;36226;53.464;9.852;2023-04-06T09:49:55;5.50;;;2.72;;
50319;SDS011;36226;53.464;9.852;2023-04-06T09:52:26;5.25;;;3.10;;
50319;SDS011;36226;53.464;9.852;2023-04-06T09:54:53;3.63;;;2.55;;
50319;SDS011;36226;53.464;9.852;2023-04-06T10:00:09;5.65;;;2.63;;
50319;SDS011;36226;53.464;9.852;2023-04-06T10:05:32;5.03;;;2.80;;
50319;SDS011;36226;53.464;9.852;2023-04-06T10:08:06;7.10;;;2.92;;
50319;SDS011;36226;53.464;9.852;2023-04-06T10:10:34;7.97;;;2.65;;
50319;SDS011;36226;53.464;9.852;2023-04-06T10:12:59;7.03;;;2.83;;
50319;SDS011;36226;53.464;9.852;2023-04-06T10:15:25;5.35;;;2.45;;
50319;SDS011;36226;53.464;9.852;2023-04-06T10:17:50;5.90;;;2.78;;
50319;SDS011;36226;53.464;9.852;2023-04-06T10:23:12;4.47;;;2.60;;
50319;SDS011;36226;53.464;9.852;2023-04-06T10:25:55;5.53;;;3.08;;
50319;SDS011;36226;53.464;9.852;2023-04-06T10:28:22;3.97;;;2.97;;
50319;SDS011;36226;53.464;9.852;2023-04-06T10:30:48;5.18;;;3.17;;
50319;SDS011;36226;53.464;9.852;2023-04-06T10:35:40;4.65;;;3.00;;
50319;SDS011;36226;53.464;9.852;2023-04-06T10:38:05;5.68;;;3.50;;
50319;SDS011;36226;53.464;9.852;2023-04-06T10:40:31;5.85;;;3.63;;
50319;SDS011;36226;53.464;9.852;2023-04-06T10:43:06;6.03;;;3.58;;
50319;SDS011;36226;53.464;9.852;2023-04-06T10:45:35;6.85;;;3.60;;
50319;SDS011;36226;53.464;9.852;2023-04-06T10:48:12;7.05;;;3.88;;
50319;SDS011;36226;53.464;9.852;2023-04-06T10:50:43;6.53;;;3.28;;
50319;SDS011;36226;53.464;9.852;2023-04-06T10:53:09;5.88;;;3.72;;
50319;SDS011;36226;53.464;9.852;2023-04-06T10:55:34;5.82;;;3.88;;
50319;SDS011;36226;53.464;9.852;2023-04-06T10:58:06;7.03;;;3.75;;
50319;SDS011;36226;53.464;9.852;2023-04-06T11:00:32;6.90;;;4.00;;
50319;SDS011;36226;53.464;9.852;2023-04-06T11:03:00;5.72;;;3.70;;
50319;SDS011;36226;53.464;9.852;2023-04-06T11:05:27;6.55;;;3.95;;
50319;SDS011;36226;53.464;9.852;2023-04-06T11:07:52;5.35;;;3.58;;
50319;SDS011;36226;53.464;9.852;2023-04-06T11:10:21;6.03;;;3.90;;
50319;SDS011;36226;53.464;9.852;2023-04-06T11:12:52;9.85;;;4.07;;
50319;SDS011;36226;53.464;9.852;2023-04-06T11:15:19;6.40;;;4.00;;
50319;SDS011;36226;53.464;9.852;2023-04-06T11:17:44;7.72;;;4.13;;
50319;SDS011;36226;53.464;9.852;2023-04-06T11:20:11;5.50;;;3.78;;
50319;SDS011;36226;53.464;9.852;2023-04-06T11:22:36;5.72;;;3.75;;
50319;SDS011;36226;53.464;9.852;2023-04-06T11:25:13;5.45;;;3.80;;
50319;SDS011;36226;53.464;9.852;2023-04-06T11:27:38;5.43;;;3.58;;
50319;SDS011;36226;53.464;9.852;2023-04-06T11:30:05;8.20;;;4.53;;
50319;SDS011;36226;53.464;9.852;2023-04-06T11:32:38;6.10;;;3.97;;
50319;SDS011;36226;53.464;9.852;2023-04-06T11:35:06;8.60;;;4.80;;
50319;SDS011;36226;53.464;9.852;2023-04-06T11:37:31;8.52;;;4.53;;
50319;SDS011;36226;53.464;9.852;2023-04-06T11:39:57;7.32;;;4.95;;
50319;SDS011;36226;53.464;9.852;2023-04-06T11:42:24;7.72;;;4.95;;
50319;SDS011;36226;53.464;9.852;2023-04-06T11:44:51;8.75;;;4.55;;
50319;SDS011;36226;53.464;9.852;2023-04-06T11:47:19;8.75;;;5.25;;
50319;SDS011;36226;53.464;9.852;2023-04-06T11:49:45;10.35;;;5.90;;
50319;SDS011;36226;53.464;9.852;2023-04-06T11:52:17;9.13;;;5.35;;
50319;SDS011;36226;53.464;9.852;2023-04-06T11:54:44;13.50;;;5.88;;
50319;SDS011;36226;53.464;9.852;2023-04-06T11:57:10;8.63;;;5.80;;
50319;SDS011;36226;53.464;9.852;2023-04-06T11:59:35;10.52;;;5.40;;
50319;SDS011;36226;53.464;9.852;2023-04-06T12:02:01;17.73;;;6.00;;
50319;SDS011;36226;53.464;9.852;2023-04-06T12:04:27;9.00;;;6.32;;
50319;SDS011;36226;53.464;9.852;2023-04-06T12:06:53;9.52;;;6.03;;
50319;SDS011;36226;53.464;9.852;2023-04-06T12:09:18;10.65;;;5.85;;
50319;SDS011;36226;53.464;9.852;2023-04-06T12:11:44;10.65;;;5.22;;
50319;SDS011;36226;53.464;9.852;2023-04-06T12:14:10;8.57;;;5.32;;
50319;SDS011;36226;53.464;9.852;2023-04-06T12:16:36;11.00;;;6.07;;
50319;SDS011;36226;53.464;9.852;2023-04-06T12:19:01;8.68;;;6.03;;
50319;SDS011;36226;53.464;9.852;2023-04-06T12:21:27;9.63;;;6.07;;
50319;SDS011;36226;53.464;9.852;2023-04-06T12:23:53;9.32;;;5.78;;
50319;SDS011;36226;53.464;9.852;2023-04-06T12:26:19;9.75;;;5.43;;
50319;SDS011;36226;53.464;9.852;2023-04-06T12:28:44;9.32;;;5.40;;
50319;SDS011;36226;53.464;9.852;2023-04-06T12:31:20;10.23;;;6.00;;
50319;SDS011;36226;53.464;9.852;2023-04-06T12:33:49;10.90;;;6.65;;
50319;SDS011;36226;53.464;9.852;2023-04-06T12:36:17;9.88;;;6.72;;
50319;SDS011;36226;53.464;9.852;2023-04-06T12:38:49;8.63;;;5.95;;
50319;SDS011;36226;53.464;9.852;2023-04-06T12:41:15;9.65;;;6.15;;
50319;SDS011;36226;53.464;9.852;2023-04-06T12:43:41;9.88;;;5.97;;
50319;SDS011;36226;53.464;9.852;2023-04-06T12:46:07;9.00;;;6.60;;
50319;SDS011;36226;53.464;9.852;2023-04-06T12:48:33;9.80;;;6.35;;
50319;SDS011;36226;53.464;9.852;2023-04-06T12:50:59;10.05;;;6.32;;
50319;SDS011;36226;53.464;9.852;2023-04-06T12:53:25;9.57;;;6.00;;
50319;SDS011;36226;53.464;9.852;2023-04-06T12:55:52;9.32;;;5.88;;
50319;SDS011;36226;53.464;9.852;2023-04-06T12:58:18;9.98;;;5.75;;
50319;SDS011;36226;53.464;9.852;2023-04-06T13:00:45;8.38;;;5.20;;
50319;SDS011;36226;53.464;9.852;2023-04-06T13:03:11;9.57;;;5.63;;
50319;SDS011;36226;53.464;9.852;2023-04-06T13:05:43;8.27;;;5.78;;
50319;SDS011;36226;53.464;9.852;2023-04-06T13:08:09;7.65;;;5.35;;
50319;SDS011;36226;53.464;9.852;2023-04-06T13:10:35;8.02;;;5.78;;
50319;SDS011;36226;53.464;9.852;2023-04-06T13:13:00;11.45;;;6.00;;
50319;SDS011;36226;53.464;9.852;2023-04-06T13:15:25;7.68;;;4.68;;
50319;SDS011;36226;53.464;9.852;2023-04-06T13:17:51;8.13;;;5.43;;
50319;SDS011;36226;53.464;9.852;2023-04-06T13:20:16;9.57;;;5.30;;
50319;SDS011;36226;53.464;9.852;2023-04-06T13:22:42;9.45;;;5.97;;
50319;SDS011;36226;53.464;9.852;2023-04-06T13:25:07;8.32;;;5.80;;
50319;SDS011;36226;53.464;9.852;2023-04-06T13:27:33;7.80;;;5.70;;
50319;SDS011;36226;53.464;9.852;2023-04-06T13:30:00;8.18;;;5.65;;
50319;SDS011;36226;53.464;9.852;2023-04-06T13:32:26;8.13;;;4.75;;
50319;SDS011;36226;53.464;9.852;2023-04-06T13:34:54;10.25;;;5.30;;
50319;SDS011;36226;53.464;9.852;2023-04-06T13:37:20;7.70;;;5.30;;
50319;SDS011;36226;53.464;9.852;2023-04-06T13:39:45;8.63;;;5.13;;
50319;SDS011;36226;53.464;9.852;2023-04-06T13:42:10;7.05;;;4.50;;
50319;SDS011;36226;53.464;9.852;2023-04-06T13:44:36;6.90;;;4.80;;
50319;SDS011;36226;53.464;9.852;2023-04-06T13:47:01;7.53;;;4.90;;
50319;SDS011;36226;53.464;9.852;2023-04-06T13:49:27;9.93;;;4.97;;
50319;SDS011;36226;53.464;9.852;2023-04-06T13:51:52;6.32;;;4.30;;
50319;SDS011;36226;53.464;9.852;2023-04-06T13:54:17;9.65;;;4.80;;
50319;SDS011;36226;53.464;9.852;2023-04-06T13:56:43;6.85;;;4.50;;
50319;SDS011;36226;53.464;9.852;2023-04-06T13:59:08;6.72;;;4.45;;
50319;SDS011;36226;53.464;9.852;2023-04-06T14:01:33;7.15;;;4.20;;
50319;SDS011;36226;53.464;9.852;2023-04-06T14:03:59;5.97;;;4.63;;
50319;SDS011;36226;53.464;9.852;2023-04-06T14:06:24;6.60;;;4.30;;
50319;SDS011;36226;53.464;9.852;2023-04-06T14:08:50;6.60;;;4.78;;
50319;SDS011;36226;53.464;9.852;2023-04-06T14:11:16;7.95;;;4.88;;
50319;SDS011;36226;53.464;9.852;2023-04-06T14:13:42;7.57;;;4.40;;
50319;SDS011;36226;53.464;9.852;2023-04-06T14:16:07;8.27;;;4.78;;
50319;SDS011;36226;53.464;9.852;2023-04-06T14:18:33;9.13;;;4.55;;
50319;SDS011;36226;53.464;9.852;2023-04-06T14:20:59;7.68;;;4.30;;
50319;SDS011;36226;53.464;9.852;2023-04-06T14:23:26;8.10;;;4.80;;
50319;SDS011;36226;53.464;9.852;2023-04-06T14:26:02;6.85;;;4.63;;
50319;SDS011;36226;53.464;9.852;2023-04-06T14:28:32;6.45;;;4.63;;
50319;SDS011;36226;53.464;9.852;2023-04-06T14:31:01;8.20;;;4.90;;
50319;SDS011;36226;53.464;9.852;2023-04-06T14:33:33;7.55;;;4.45;;
50319;SDS011;36226;53.464;9.852;2023-04-06T14:35:59;6.50;;;4.40;;
50319;SDS011;36226;53.464;9.852;2023-04-06T14:38:27;7.35;;;4.57;;
50319;SDS011;36226;53.464;9.852;2023-04-06T14:40:53;7.60;;;5.13;;
50319;SDS011;36226;53.464;9.852;2023-04-06T14:43:18;8.02;;;5.15;;
50319;SDS011;36226;53.464;9.852;2023-04-06T14:45:44;8.85;;;5.05;;
50319;SDS011;36226;53.464;9.852;2023-04-06T14:48:09;7.75;;;4.82;;
50319;SDS011;36226;53.464;9.852;2023-04-06T14:50:37;7.13;;;4.53;;
50319;SDS011;36226;53.464;9.852;2023-04-06T14:53:03;9.98;;;4.72;;
50319;SDS011;36226;53.464;9.852;2023-04-06T14:55:28;6.55;;;4.10;;
50319;SDS011;36226;53.464;9.852;2023-04-06T14:57:54;6.00;;;4.10;;
50319;SDS011;36226;53.464;9.852;2023-04-06T15:00:19;6.22;;;4.00;;
50319;SDS011;36226;53.464;9.852;2023-04-06T15:02:45;7.40;;;4.05;;
50319;SDS011;36226;53.464;9.852;2023-04-06T15:05:10;7.10;;;4.68;;
50319;SDS011;36226;53.464;9.852;2023-04-06T15:07:36;6.18;;;4.60;;
50319;SDS011;36226;53.464;9.852;2023-04-06T15:10:03;6.38;;;4.25;;
50319;SDS011;36226;53.464;9.852;2023-04-06T15:12:29;7.68;;;4.60;;
50319;SDS011;36226;53.464;9.852;2023-04-06T15:14:55;6.38;;;3.95;;
50319;SDS011;36226;53.464;9.852;2023-04-06T15:17:20;7.35;;;4.40;;
50319;SDS011;36226;53.464;9.852;2023-04-06T15:19:46;8.43;;;4.63;;
50319;SDS011;36226;53.464;9.852;2023-04-06T15:22:11;6.50;;;3.90;;
50319;SDS011;36226;53.464;9.852;2023-04-06T15:24:36;9.88;;;4.35;;
50319;SDS011;36226;53.464;9.852;2023-04-06T15:27:02;5.68;;;3.78;;
50319;SDS011;36226;53.464;9.852;2023-04-06T15:29:27;5.85;;;4.10;;
50319;SDS011;36226;53.464;9.852;2023-04-06T15:31:52;8.48;;;4.05;;
50319;SDS011;36226;53.464;9.852;2023-04-06T15:34:18;6.22;;;3.47;;
50319;SDS011;36226;53.464;9.852;2023-04-06T15:36:43;10.40;;;4.05;;
50319;SDS011;36226;53.464;9.852;2023-04-06T15:39:10;5.45;;;3.78;;
50319;SDS011;36226;53.464;9.852;2023-04-06T15:41:36;7.32;;;4.20;;
50319;SDS011;36226;53.464;9.852;2023-04-06T15:44:01;7.13;;;4.30;;
50319;SDS011;36226;53.464;9.852;2023-04-06T15:46:27;7.32;;;4.60;;
50319;SDS011;36226;53.464;9.852;2023-04-06T15:48:52;6.78;;;3.72;;
50319;SDS011;36226;53.464;9.852;2023-04-06T15:51:18;9.65;;;4.03;;
50319;SDS011;36226;53.464;9.852;2023-04-06T15:53:43;6.53;;;4.30;;
50319;SDS011;36226;53.464;9.852;2023-04-06T15:56:09;7.72;;;4.70;;
50319;SDS011;36226;53.464;9.852;2023-04-06T15:58:35;6.45;;;3.78;;
50319;SDS011;36226;53.464;9.852;2023-04-06T16:01:16;6.25;;;4.50;;
50319;SDS011;36226;53.464;9.852;2023-04-06T16:03:42;6.53;;;4.50;;
50319;SDS011;36226;53.464;9.852;2023-04-06T16:06:08;7.65;;;4.72;;
50319;SDS011;36226;53.464;9.852;2023-04-06T16:08:34;7.28;;;4.28;;
50319;SDS011;36226;53.464;9.852;2023-04-06T16:11:00;6.22;;;4.43;;
50319;SDS011;36226;53.464;9.852;2023-04-06T16:13:26;6.82;;;4.63;;
50319;SDS011;36226;53.464;9.852;2023-04-06T16:15:51;5.57;;;4.22;;
50319;SDS011;36226;53.464;9.852;2023-04-06T16:18:17;7.38;;;4.10;;
50319;SDS011;36226;53.464;9.852;2023-04-06T16:20:42;6.80;;;4.13;;
50319;SDS011;36226;53.464;9.852;2023-04-06T16:23:08;8.70;;;4.20;;
50319;SDS011;36226;53.464;9.852;2023-04-06T16:25:34;5.75;;;4.07;;
50319;SDS011;36226;53.464;9.852;2023-04-06T16:27:59;6.18;;;4.55;;
50319;SDS011;36226;53.464;9.852;2023-04-06T16:30:25;7.38;;;4.47;;
50319;SDS011;36226;53.464;9.852;2023-04-06T16:32:53;6.82;;;4.65;;
50319;SDS011;36226;53.464;9.852;2023-04-06T16:35:19;6.28;;;4.68;;
50319;SDS011;36226;53.464;9.852;2023-04-06T16:37:44;7.15;;;4.53;;
50319;SDS011;36226;53.464;9.852;2023-04-06T16:40:10;7.43;;;4.60;;
50319;SDS011;36226;53.464;9.852;2023-04-06T16:42:36;8.40;;;4.88;;
50319;SDS011;36226;53.464;9.852;2023-04-06T16:45:01;7.68;;;4.75;;
50319;SDS011;36226;53.464;9.852;2023-04-06T16:47:26;9.65;;;4.50;;
50319;SDS011;36226;53.464;9.852;2023-04-06T16:49:52;8.02;;;4.90;;
50319;SDS011;36226;53.464;9.852;2023-04-06T16:52:18;7.43;;;4.85;;
50319;SDS011;36226;53.464;9.852;2023-04-06T16:54:43;7.00;;;4.70;;
50319;SDS011;36226;53.464;9.852;2023-04-06T16:57:08;7.00;;;5.03;;
50319;SDS011;36226;53.464;9.852;2023-04-06T16:59:34;10.05;;;4.10;;
50319;SDS011;36226;53.464;9.852;2023-04-06T17:01:59;7.13;;;4.20;;
50319;SDS011;36226;53.464;9.852;2023-04-06T17:04:25;6.57;;;4.40;;
50319;SDS011;36226;53.464;9.852;2023-04-06T17:06:50;7.22;;;3.70;;
50319;SDS011;36226;53.464;9.852;2023-04-06T17:09:16;7.28;;;4.32;;
50319;SDS011;36226;53.464;9.852;2023-04-06T17:11:41;7.43;;;4.90;;
50319;SDS011;36226;53.464;9.852;2023-04-06T17:14:07;7.75;;;5.60;;
50319;SDS011;36226;53.464;9.852;2023-04-06T17:16:33;6.82;;;4.38;;
50319;SDS011;36226;53.464;9.852;2023-04-06T17:19:02;5.47;;;4.13;;
50319;SDS011;36226;53.464;9.852;2023-04-06T17:21:27;6.05;;;4.32;;
50319;SDS011;36226;53.464;9.852;2023-04-06T17:23:53;5.65;;;4.32;;
50319;SDS011;36226;53.464;9.852;2023-04-06T17:26:18;7.53;;;4.10;;
50319;SDS011;36226;53.464;9.852;2023-04-06T17:28:47;5.63;;;4.20;;
50319;SDS011;36226;53.464;9.852;2023-04-06T17:31:12;6.45;;;4.75;;
50319;SDS011;36226;53.464;9.852;2023-04-06T17:33:38;5.72;;;4.40;;
50319;SDS011;36226;53.464;9.852;2023-04-06T17:36:05;6.15;;;4.15;;
50319;SDS011;36226;53.464;9.852;2023-04-06T17:38:31;5.35;;;4.03;;
50319;SDS011;36226;53.464;9.852;2023-04-06T17:40:57;6.93;;;4.03;;
50319;SDS011;36226;53.464;9.852;2023-04-06T17:43:22;8.93;;;4.30;;
50319;SDS011;36226;53.464;9.852;2023-04-06T17:45:48;7.00;;;4.15;;
50319;SDS011;36226;53.464;9.852;2023-04-06T17:48:17;7.78;;;5.03;;
50319;SDS011;36226;53.464;9.852;2023-04-06T17:50:43;8.98;;;6.00;;
50319;SDS011;36226;53.464;9.852;2023-04-06T17:53:09;7.07;;;4.57;;
50319;SDS011;36226;53.464;9.852;2023-04-06T17:55:35;7.57;;;4.38;;
50319;SDS011;36226;53.464;9.852;2023-04-06T17:58:01;7.88;;;4.72;;
50319;SDS011;36226;53.464;9.852;2023-04-06T18:00:26;6.95;;;4.50;;
50319;SDS011;36226;53.464;9.852;2023-04-06T18:02:53;7.22;;;4.80;;
50319;SDS011;36226;53.464;9.852;2023-04-06T18:05:19;18.58;;;10.40;;
50319;SDS011;36226;53.464;9.852;2023-04-06T18:07:45;16.80;;;8.93;;
50319;SDS011;36226;53.464;9.852;2023-04-06T18:10:11;10.55;;;5.63;;
50319;SDS011;36226;53.464;9.852;2023-04-06T18:12:36;8.52;;;5.35;;
50319;SDS011;36226;53.464;9.852;2023-04-06T18:15:02;8.00;;;5.13;;
50319;SDS011;36226;53.464;9.852;2023-04-06T18:17:28;8.90;;;4.88;;
50319;SDS011;36226;53.464;9.852;2023-04-06T18:19:53;7.10;;;4.60;;
50319;SDS011;36226;53.464;9.852;2023-04-06T18:22:19;9.95;;;5.57;;
50319;SDS011;36226;53.464;9.852;2023-04-06T18:24:44;8.95;;;5.25;;
50319;SDS011;36226;53.464;9.852;2023-04-06T18:27:10;8.85;;;5.28;;
50319;SDS011;36226;53.464;9.852;2023-04-06T18:29:37;9.30;;;4.95;;